Time;durP1;ratioP1;P1;durP2;ratioP2;P2;SDS_P1;SDS_P2;PMS_P1;PMS_P2;Temp;Humidity;BMP_temperature;BMP_pressure;BME280_temperature;BME280_humidity;BME280_pressure;Samples;Min_cycle;Max_cycle;Signal;HPM_P1;HPM_P2
2024/01/22 00:02:22;;;;;;;5.90;3.15;;;;;;;6.84;100.00;100880.75;4974064;28;20464;-89
2024/01/22 00:04:47;;;;;;;7.13;3.20;;;;;;;6.87;100.00;100847.97;4976105;28;20448;-90
2024/01/22 00:07:13;;;;;;;6.03;2.95;;;;;;;6.92;100.00;100844.44;4981944;28;20053;-88
2024/01/22 00:09:38;;;;;;;4.82;3.05;;;;;;;6.95;100.00;100825.47;4986079;28;20034;-90
2024/01/22 00:12:04;;;;;;;6.97;2.95;;;;;;;6.97;100.00;100814.22;4986989;28;20092;-92
2024/01/22 00:14:29;;;;;;;5.47;3.00;;;;;;;7.05;100.00;100806.38;4983739;28;20139;-89
2024/01/22 00:16:54;;;;;;;4.50;2.58;;;;;;;7.08;100.00;100788.25;4984804;28;20088;-90
2024/01/22 00:19:19;;;;;;;4.85;2.83;;;;;;;7.13;100.00;100791.63;4987751;28;20367;-90
2024/01/22 00:21:45;;;;;;;5.03;2.80;;;;;;;7.13;100.00;100801.13;4969566;28;20031;-90
2024/01/22 00:24:10;;;;;;;5.97;3.08;;;;;;;7.12;100.00;100781.28;4985756;28;20070;-88
2024/01/22 00:26:36;;;;;;;5.07;2.70;;;;;;;7.11;100.00;100798.56;4985181;28;20041;-89
2024/01/22 00:29:01;;;;;;;6.70;3.13;;;;;;;7.12;100.00;100822.69;4988111;28;20023;-89
2024/01/22 00:31:27;;;;;;;4.72;2.60;;;;;;;7.13;100.00;100817.50;4988940;28;20054;-89
2024/01/22 00:33:52;;;;;;;5.07;3.05;;;;;;;7.21;100.00;100812.25;4989538;28;20027;-89
2024/01/22 00:36:17;;;;;;;6.88;3.05;;;;;;;7.19;100.00;100776.91;4989880;28;20396;-89
2024/01/22 00:38:43;;;;;;;5.05;2.70;;;;;;;7.25;100.00;100792.34;4990228;28;20030;-90
2024/01/22 00:41:09;;;;;;;5.93;2.80;;;;;;;7.25;100.00;100771.66;4989315;28;20030;-88
2024/01/22 00:43:36;;;;;;;4.75;2.60;;;;;;;7.21;100.00;100755.31;4971736;28;20236;-90
2024/01/22 00:46:02;;;;;;;5.80;2.83;;;;;;;7.21;100.00;100744.09;4983803;28;20037;-88
2024/01/22 00:48:28;;;;;;;6.32;2.78;;;;;;;7.25;100.00;100740.59;4969968;28;20586;-90
2024/01/22 00:50:53;;;;;;;5.97;2.60;;;;;;;7.25;100.00;100738.00;4988688;28;20059;-89
2024/01/22 00:53:18;;;;;;;7.03;3.10;;;;;;;7.30;100.00;100715.53;4988533;28;20033;-89
2024/01/22 00:55:44;;;;;;;4.78;2.38;;;;;;;7.34;100.00;100719.78;4987123;28;20034;-89
2024/01/22 00:58:09;;;;;;;5.25;2.47;;;;;;;7.35;100.00;100726.66;4981676;28;20035;-89
2024/01/22 01:00:34;;;;;;;6.60;2.75;;;;;;;7.36;100.00;100728.34;4989276;28;20383;-89
2024/01/22 01:03:00;;;;;;;4.55;2.70;;;;;;;7.36;100.00;100717.16;4987137;28;20483;-89
2024/01/22 01:05:25;;;;;;;4.82;2.22;;;;;;;7.36;100.00;100724.94;4983165;28;20026;-89
2024/01/22 01:07:50;;;;;;;5.55;2.35;;;;;;;7.43;100.00;100760.19;4964707;28;20027;-90
2024/01/22 01:10:16;;;;;;;6.95;2.25;;;;;;;7.40;100.00;100719.69;4958204;28;20120;-89
2024/01/22 01:12:41;;;;;;;5.03;2.38;;;;;;;7.44;100.00;100705.81;4946927;28;20565;-90
2024/01/22 01:15:07;;;;;;;4.55;2.53;;;;;;;7.50;100.00;100709.22;4961052;28;20515;-89
2024/01/22 01:17:33;;;;;;;4.85;2.20;;;;;;;7.54;100.00;100705.66;4964120;28;20083;-89
2024/01/22 01:19:58;;;;;;;5.65;2.38;;;;;;;7.61;100.00;100717.66;4963504;28;20121;-89
2024/01/22 01:22:23;;;;;;;5.18;2.30;;;;;;;7.58;100.00;100710.81;4966661;28;20034;-89
2024/01/22 01:24:49;;;;;;;4.53;2.25;;;;;;;7.60;100.00;100705.59;4963339;28;20145;-89
2024/01/22 01:27:16;;;;;;;4.10;2.22;;;;;;;7.70;100.00;100707.13;4963460;28;20206;-90
2024/01/22 01:29:41;;;;;;;4.72;2.58;;;;;;;7.73;100.00;100711.44;4962959;28;20061;-90
2024/01/22 01:32:07;;;;;;;4.55;2.40;;;;;;;7.74;100.00;100723.50;4956411;28;20377;-88
2024/01/22 01:34:32;;;;;;;4.00;2.60;;;;;;;7.73;100.00;100696.72;4962580;28;20371;-89
2024/01/22 01:36:57;;;;;;;2.92;2.08;;;;;;;7.78;100.00;100735.50;4957650;28;20404;-91
2024/01/22 01:39:23;;;;;;;6.18;2.80;;;;;;;7.78;100.00;100688.03;4960027;28;20039;-91
2024/01/22 01:41:49;;;;;;;3.45;2.20;;;;;;;7.81;100.00;100670.72;4961449;28;20049;-89
2024/01/22 01:44:14;;;;;;;4.38;2.00;;;;;;;7.82;100.00;100663.81;4959547;28;20039;-90
2024/01/22 01:46:40;;;;;;;3.20;1.98;;;;;;;7.82;100.00;100669.84;4962456;28;20046;-90
2024/01/22 01:49:06;;;;;;;3.75;2.00;;;;;;;7.83;100.00;100662.94;4962626;28;20043;-89
2024/01/22 01:51:32;;;;;;;3.22;2.20;;;;;;;7.85;100.00;100679.31;4966947;28;20022;-88
2024/01/22 01:53:58;;;;;;;2.92;1.80;;;;;;;7.85;100.00;100689.66;4966517;28;20114;-90
2024/01/22 01:56:24;;;;;;;2.85;1.90;;;;;;;7.86;100.00;100665.44;4962006;28;20400;-89
2024/01/22 01:58:50;;;;;;;3.65;2.13;;;;;;;7.92;100.00;100657.56;4965983;28;20026;-89
2024/01/22 02:01:16;;;;;;;3.22;1.70;;;;;;;7.97;100.00;100652.31;4965414;28;20034;-89
2024/01/22 02:03:41;;;;;;;3.28;1.95;;;;;;;7.98;100.00;100667.84;4962346;28;20031;-88
2024/01/22 02:06:07;;;;;;;4.03;1.70;;;;;;;8.02;100.00;100653.97;4966887;28;20074;-88
2024/01/22 02:08:32;;;;;;;3.00;1.88;;;;;;;8.04;100.00;100648.72;4976607;28;20063;-88
2024/01/22 02:10:57;;;;;;;5.78;2.35;;;;;;;8.07;100.00;100638.31;4978246;28;20476;-89
2024/01/22 02:13:25;;;;;;;4.15;2.08;;;;;;;8.13;100.00;100621.81;4967353;28;20141;-89
2024/01/22 02:15:51;;;;;;;3.10;1.92;;;;;;;8.11;100.00;100633.94;4965574;28;20484;-89
2024/01/22 02:18:16;;;;;;;5.07;1.90;;;;;;;8.15;100.00;100614.84;4971514;28;20058;-88
2024/01/22 02:20:41;;;;;;;4.55;2.10;;;;;;;8.22;100.00;100600.88;4978537;28;20054;-88
2024/01/22 02:23:07;;;;;;;3.78;1.80;;;;;;;8.22;100.00;100621.59;4980159;28;20073;-88
2024/01/22 02:25:32;;;;;;;3.85;1.70;;;;;;;8.26;100.00;100586.97;4973678;28;20070;-89
2024/01/22 02:27:58;;;;;;;3.30;1.80;;;;;;;8.28;100.00;100598.16;4979259;28;20038;-88
2024/01/22 02:30:23;;;;;;;3.25;1.83;;;;;;;8.27;100.00;100578.31;4979629;28;20062;-89
2024/01/22 02:32:49;;;;;;;2.95;1.60;;;;;;;8.29;100.00;100563.59;4974505;28;20515;-90
2024/01/22 02:35:14;;;;;;;3.55;1.67;;;;;;;8.28;100.00;100561.88;4975222;28;20023;-88
2024/01/22 02:37:39;;;;;;;5.63;1.83;;;;;;;8.27;100.00;100572.31;4974959;28;20058;-89
2024/01/22 02:40:06;;;;;;;2.88;1.70;;;;;;;8.30;100.00;100551.47;4966763;28;20038;-90
2024/01/22 02:42:31;;;;;;;2.40;1.55;;;;;;;8.35;100.00;100550.53;4972862;28;20062;-89
2024/01/22 02:44:57;;;;;;;2.88;1.73;;;;;;;8.34;100.00;100542.75;4977362;28;20511;-90
2024/01/22 02:47:22;;;;;;;3.60;1.70;;;;;;;8.36;100.00;100522.84;4973229;28;20019;-88
2024/01/22 02:49:47;;;;;;;3.63;1.90;;;;;;;8.35;100.00;100529.78;4973611;28;20392;-88
2024/01/22 02:52:13;;;;;;;3.33;1.83;;;;;;;8.39;100.00;100540.06;4973253;28;20453;-90
2024/01/22 02:54:38;;;;;;;3.17;1.75;;;;;;;8.43;100.00;100510.59;4975383;28;20034;-89
2024/01/22 02:57:04;;;;;;;1.98;1.60;;;;;;;8.34;100.00;100507.34;4975946;28;20448;-90
2024/01/22 02:59:29;;;;;;;3.00;1.50;;;;;;;8.34;100.00;100506.47;4975803;28;20034;-88
2024/01/22 03:01:54;;;;;;;5.38;2.30;;;;;;;8.35;100.00;100508.19;4974631;28;20026;-88
2024/01/22 03:04:20;;;;;;;2.63;1.70;;;;;;;8.33;100.00;100487.50;4976654;28;20391;-90
2024/01/22 03:06:45;;;;;;;3.17;1.70;;;;;;;8.38;100.00;100486.50;4977739;28;20054;-88
2024/01/22 03:09:11;;;;;;;2.65;1.80;;;;;;;8.39;100.00;100493.41;4978711;28;20023;-89
2024/01/22 03:11:36;;;;;;;2.42;1.60;;;;;;;8.38;100.00;100471.81;4958483;28;20038;-88
2024/01/22 03:14:01;;;;;;;3.63;1.60;;;;;;;8.32;100.00;100478.00;4964165;28;20104;-88
2024/01/22 03:16:27;;;;;;;3.00;1.67;;;;;;;8.31;100.00;100455.56;4974939;28;20788;-89
2024/01/22 03:18:53;;;;;;;3.28;1.98;;;;;;;8.29;100.00;100457.34;4974033;28;20035;-88
2024/01/22 03:21:18;;;;;;;3.75;1.73;;;;;;;8.31;100.00;100452.97;4975461;28;20062;-89
2024/01/22 03:23:43;;;;;;;3.65;1.63;;;;;;;8.30;100.00;100455.59;4973515;28;20110;-88
2024/01/22 03:26:18;;;;;;;3.28;1.70;;;;;;;8.33;100.00;100438.25;4976577;28;20038;-88
2024/01/22 03:28:43;;;;;;;3.13;1.70;;;;;;;8.27;100.00;100448.75;4973259;28;20057;-88
2024/01/22 03:31:23;;;;;;;3.17;1.60;;;;;;;8.29;100.00;100446.97;4978163;28;20062;-87
2024/01/22 03:33:50;;;;;;;2.25;1.60;;;;;;;8.31;100.00;100447.78;4973616;28;20134;-88
2024/01/22 03:36:15;;;;;;;3.17;1.73;;;;;;;8.27;100.00;100430.59;4973658;28;20030;-88
2024/01/22 03:38:40;;;;;;;2.95;1.65;;;;;;;8.29;100.00;100439.19;4964203;28;20689;-89
2024/01/22 03:41:06;;;;;;;3.50;1.65;;;;;;;8.28;100.00;100434.91;4971841;28;20353;-89
2024/01/22 03:43:31;;;;;;;2.45;1.50;;;;;;;8.31;100.00;100424.47;4974020;28;20061;-89
2024/01/22 03:45:56;;;;;;;2.78;1.60;;;;;;;8.34;100.00;100439.94;4976916;28;20094;-89
2024/01/22 03:48:21;;;;;;;2.90;1.75;;;;;;;8.37;100.00;100438.19;4975847;28;20034;-89
2024/01/22 03:50:47;;;;;;;5.40;1.50;;;;;;;8.37;100.00;100407.06;4972191;28;20054;-89
2024/01/22 03:53:12;;;;;;;2.17;1.40;;;;;;;8.33;100.00;100424.41;4972650;28;20113;-87
2024/01/22 03:55:37;;;;;;;3.17;1.60;;;;;;;8.32;100.00;100425.31;4974888;28;20460;-89
2024/01/22 03:58:03;;;;;;;4.65;1.50;;;;;;;8.33;100.00;100433.06;4976818;28;20543;-88
2024/01/22 04:00:28;;;;;;;4.30;1.90;;;;;;;8.30;100.00;100417.56;4959390;28;20022;-89
2024/01/22 04:02:54;;;;;;;2.92;1.50;;;;;;;8.30;100.00;100409.78;4976171;28;20030;-88
2024/01/22 04:05:19;;;;;;;3.55;1.30;;;;;;;8.31;100.00;100424.47;4981337;28;20420;-87
2024/01/22 04:07:44;;;;;;;2.47;1.40;;;;;;;8.39;100.00;100426.88;4972742;28;20046;-89
2024/01/22 04:10:10;;;;;;;2.50;1.30;;;;;;;8.39;100.00;100415.63;4977817;28;20042;-88
2024/01/22 04:12:37;;;;;;;2.15;1.27;;;;;;;8.39;100.00;100426.88;4975116;28;20023;-87
2024/01/22 04:15:03;;;;;;;2.20;1.40;;;;;;;8.39;100.00;100397.50;4977654;28;20588;-89
2024/01/22 04:17:29;;;;;;;2.72;1.30;;;;;;;8.42;100.00;100407.78;4976611;28;20030;-89
2024/01/22 04:19:54;;;;;;;2.17;1.25;;;;;;;8.43;100.00;100419.88;4976576;28;20065;-88
2024/01/22 04:22:19;;;;;;;1.42;1.13;;;;;;;8.40;100.00;100396.59;4977235;28;20053;-88
2024/01/22 04:24:45;;;;;;;2.45;1.40;;;;;;;8.41;100.00;100403.50;4976671;28;20037;-87
2024/01/22 04:27:10;;;;;;;1.90;1.35;;;;;;;8.41;100.00;100388.81;4976327;28;20045;-88
2024/01/22 04:29:35;;;;;;;3.13;1.30;;;;;;;8.39;100.00;100395.78;4976587;28;20441;-87
2024/01/22 04:32:01;;;;;;;2.38;1.40;;;;;;;8.41;100.00;100406.97;4976650;28;20049;-87
2024/01/22 04:34:26;;;;;;;1.83;1.10;;;;;;;8.46;100.00;100379.16;4981730;28;20033;-87
2024/01/22 04:36:52;;;;;;;1.80;1.17;;;;;;;8.43;100.00;100392.22;4976541;28;20483;-87
2024/01/22 04:39:17;;;;;;;2.13;1.35;;;;;;;8.46;100.00;100401.66;4975935;28;20031;-88
2024/01/22 04:41:42;;;;;;;2.30;1.17;;;;;;;8.50;100.00;100392.94;4976350;28;20117;-87
2024/01/22 04:44:08;;;;;;;3.05;1.20;;;;;;;8.49;100.00;100401.63;4976513;28;20034;-88
2024/01/22 04:46:33;;;;;;;2.40;1.20;;;;;;;8.52;100.00;100375.63;4975807;28;20109;-88
2024/01/22 04:48:59;;;;;;;1.67;1.20;;;;;;;8.57;100.00;100404.03;4976341;28;20035;-90
2024/01/22 04:51:24;;;;;;;3.95;1.30;;;;;;;8.55;100.00;100378.13;4976307;28;20324;-87
2024/01/22 04:53:50;;;;;;;1.85;1.42;;;;;;;8.54;100.00;100367.78;4976030;28;20041;-88
2024/01/22 04:56:15;;;;;;;2.45;1.20;;;;;;;8.53;100.00;100385.09;4976398;28;20035;-89
2024/01/22 04:58:40;;;;;;;1.65;0.90;;;;;;;8.55;100.00;100367.75;4976957;28;20027;-88
2024/01/22 05:01:06;;;;;;;2.80;1.10;;;;;;;8.62;100.00;100371.06;4982102;28;20129;-89
2024/01/22 05:03:31;;;;;;;1.98;0.98;;;;;;;8.62;100.00;100371.91;4976591;28;20373;-87
2024/01/22 05:05:56;;;;;;;2.25;0.93;;;;;;;8.69;100.00;100371.75;4981844;28;20073;-88
2024/01/22 05:08:22;;;;;;;2.65;1.15;;;;;;;8.74;100.00;100360.38;4977894;28;20129;-88
2024/01/22 05:10:47;;;;;;;1.75;1.13;;;;;;;8.76;100.00;100344.75;4994537;28;20034;-88
2024/01/22 05:13:13;;;;;;;1.35;1.00;;;;;;;8.76;100.00;100337.84;4993046;28;20052;-88
2024/01/22 05:15:38;;;;;;;1.50;1.10;;;;;;;8.79;100.00;100357.66;4991586;28;20026;-89
2024/01/22 05:18:04;;;;;;;1.48;0.90;;;;;;;8.84;100.00;100350.59;4991801;28;20141;-88
2024/01/22 05:20:29;;;;;;;1.92;1.00;;;;;;;8.83;100.00;100368.78;4992196;28;20070;-88
2024/01/22 05:22:55;;;;;;;1.83;1.05;;;;;;;8.88;100.00;100365.16;4987852;28;20388;-88
2024/01/22 05:25:20;;;;;;;1.70;1.00;;;;;;;8.91;100.00;100357.31;4989720;28;20066;-89
2024/01/22 05:27:47;;;;;;;2.10;1.00;;;;;;;8.95;100.00;100353.75;4991249;28;20023;-87
2024/01/22 05:30:13;;;;;;;1.67;0.90;;;;;;;8.98;100.00;100346.78;4988822;28;20348;-88
2024/01/22 05:32:39;;;;;;;2.20;0.90;;;;;;;8.95;100.00;100353.75;4991837;28;20026;-88
2024/01/22 05:35:05;;;;;;;3.67;1.10;;;;;;;8.97;100.00;100319.97;4991099;28;20037;-88
2024/01/22 05:37:31;;;;;;;1.55;0.90;;;;;;;8.95;100.00;100348.56;4988208;28;20030;-88
2024/01/22 05:39:56;;;;;;;2.30;0.80;;;;;;;9.00;100.00;100361.41;4988956;28;20486;-89
2024/01/22 05:42:21;;;;;;;1.48;0.80;;;;;;;9.01;100.00;100370.06;4991544;28;20034;-89
2024/01/22 05:44:46;;;;;;;2.20;0.85;;;;;;;9.06;100.00;100344.81;4991765;28;20026;-88
2024/01/22 05:47:12;;;;;;;5.88;1.17;;;;;;;9.09;100.00;100357.72;4991102;28;20065;-88
2024/01/22 05:49:37;;;;;;;1.80;0.90;;;;;;;9.15;100.00;100348.91;4988393;28;20165;-89
2024/01/22 05:52:03;;;;;;;1.63;0.90;;;;;;;9.19;100.00;100372.16;4991509;28;20471;-88
2024/01/22 05:54:29;;;;;;;1.92;0.93;;;;;;;9.26;100.00;100352.91;4992173;28;20058;-89
2024/01/22 05:56:55;;;;;;;2.03;0.80;;;;;;;9.28;100.00;100371.03;4987843;28;20023;-88
2024/01/22 05:59:20;;;;;;;2.10;0.70;;;;;;;9.33;100.00;100379.53;4988639;28;20045;-89
2024/01/22 06:01:45;;;;;;;1.15;0.68;;;;;;;9.32;100.00;100384.78;4973314;28;20026;-88
2024/01/22 06:04:11;;;;;;;3.72;0.90;;;;;;;9.34;100.00;100367.41;4990161;28;20034;-88
2024/01/22 06:06:37;;;;;;;1.88;0.88;;;;;;;9.35;100.00;100371.72;4990267;28;20061;-88
2024/01/22 06:09:02;;;;;;;2.03;1.00;;;;;;;9.32;100.00;100366.63;4989429;28;20045;-87
2024/01/22 06:11:28;;;;;;;1.92;1.00;;;;;;;9.30;100.00;100379.66;4991827;28;20034;-88
2024/01/22 06:13:54;;;;;;;1.25;0.80;;;;;;;9.27;100.00;100390.13;4991794;28;20046;-88
2024/01/22 06:16:20;;;;;;;1.15;0.70;;;;;;;9.25;100.00;100397.91;4971446;28;20065;-88
2024/01/22 06:18:45;;;;;;;1.10;0.70;;;;;;;9.26;100.00;100388.41;4989927;28;20048;-89
2024/01/22 06:21:11;;;;;;;2.33;0.90;;;;;;;9.23;100.00;100375.50;4991450;28;20451;-87
2024/01/22 06:23:37;;;;;;;2.03;1.00;;;;;;;9.22;100.00;100360.81;4991422;28;20505;-88
2024/01/22 06:26:03;;;;;;;1.90;0.80;;;;;;;9.26;100.00;100355.50;4970656;28;20042;-88
2024/01/22 06:28:30;;;;;;;2.35;0.80;;;;;;;9.28;100.00;100358.06;4984947;28;20038;-88
2024/01/22 06:30:56;;;;;;;1.77;0.85;;;;;;;9.30;100.00;100368.41;4986525;28;20034;-87
2024/01/22 06:33:22;;;;;;;1.00;0.80;;;;;;;9.26;100.00;100372.84;4991416;28;20438;-88
2024/01/22 06:35:47;;;;;;;1.95;0.80;;;;;;;9.32;100.00;100371.81;4990751;28;20033;-87
2024/01/22 06:38:17;;;;;;;1.58;0.85;;;;;;;9.33;100.00;100369.16;4989587;28;20038;-88
2024/01/22 06:40:43;;;;;;;1.80;0.82;;;;;;;9.27;100.00;100362.41;4969040;28;20058;-89
2024/01/22 06:43:09;;;;;;;2.45;0.75;;;;;;;9.26;100.00;100371.06;4991316;28;20134;-89
2024/01/22 06:45:35;;;;;;;3.38;0.80;;;;;;;9.26;100.00;100368.47;4987961;28;20105;-88
2024/01/22 06:48:01;;;;;;;1.60;0.80;;;;;;;9.29;100.00;100388.31;4989165;28;20033;-89
2024/01/22 06:50:27;;;;;;;1.75;0.77;;;;;;;9.32;100.00;100384.78;4987684;28;20109;-88
2024/01/22 06:52:52;;;;;;;3.50;0.90;;;;;;;9.33;100.00;100376.09;4985470;28;20123;-87
2024/01/22 06:55:18;;;;;;;2.53;0.88;;;;;;;9.31;100.00;100388.28;4990570;28;21187;-87
2024/01/22 06:57:44;;;;;;;1.17;0.80;;;;;;;9.27;100.00;100401.31;4985631;28;20033;-88
2024/01/22 07:00:11;;;;;;;1.30;0.80;;;;;;;9.26;100.00;100412.59;4990774;28;20030;-87
2024/01/22 07:02:38;;;;;;;2.25;0.77;;;;;;;9.27;100.00;100418.66;4989530;28;20029;-87
2024/01/22 07:05:04;;;;;;;0.85;0.57;;;;;;;9.27;100.00;100410.88;4973344;28;20026;-87
2024/01/22 07:07:30;;;;;;;1.80;0.70;;;;;;;9.27;100.00;100427.28;4990443;28;20458;-87
2024/01/22 07:09:56;;;;;;;1.73;0.85;;;;;;;9.25;100.00;100423.88;4990741;28;20058;-88
2024/01/22 07:12:22;;;;;;;2.00;0.70;;;;;;;9.24;100.00;100408.34;4990415;28;20030;-88
2024/01/22 07:14:48;;;;;;;1.45;0.70;;;;;;;9.20;100.00;100402.41;4989196;28;20030;-88
2024/01/22 07:17:15;;;;;;;2.17;0.80;;;;;;;9.20;100.00;100414.53;4990216;28;20030;-87
2024/01/22 07:19:41;;;;;;;1.25;0.73;;;;;;;9.19;100.00;100418.88;4990435;28;20530;-87
2024/01/22 07:22:06;;;;;;;1.70;0.80;;;;;;;9.19;100.00;100426.66;4990468;28;20118;-88
2024/01/22 07:24:32;;;;;;;1.40;0.70;;;;;;;9.21;100.00;100421.41;4987715;28;20028;-87
2024/01/22 07:26:57;;;;;;;1.30;0.80;;;;;;;9.23;100.00;100415.28;4990404;28;20424;-87
2024/01/22 07:29:24;;;;;;;3.00;0.90;;;;;;;9.21;100.00;100411.91;4990306;28;20511;-87
2024/01/22 07:31:49;;;;;;;1.40;0.80;;;;;;;9.30;100.00;100423.78;4990424;28;20031;-87
2024/01/22 07:34:14;;;;;;;2.00;0.80;;;;;;;9.30;100.00;100421.19;4990266;28;20069;-87
2024/01/22 07:36:40;;;;;;;5.07;1.00;;;;;;;9.32;100.00;100419.38;4990040;28;20033;-88
2024/01/22 07:39:07;;;;;;;3.38;1.00;;;;;;;9.38;100.00;100418.38;4985268;28;20037;-88
2024/01/22 07:41:36;;;;;;;3.28;1.10;;;;;;;9.39;100.00;100414.88;4968657;28;20044;-87
2024/01/22 07:44:01;;;;;;;3.63;1.00;;;;;;;9.40;100.00;100425.22;4986257;28;20035;-88
2024/01/22 07:46:27;;;;;;;5.10;1.20;;;;;;;9.43;100.00;100433.81;4977668;28;20053;-87
2024/01/22 07:48:52;;;;;;;4.30;0.88;;;;;;;9.40;100.00;100432.13;4984778;28;20022;-87
2024/01/22 07:51:18;;;;;;;6.60;1.30;;;;;;;9.39;100.00;100436.50;4985032;28;20117;-88
2024/01/22 07:53:44;;;;;;;3.42;0.98;;;;;;;9.42;100.00;100445.94;4980864;28;20065;-88
2024/01/22 07:56:09;;;;;;;2.95;1.00;;;;;;;9.41;100.00;100441.63;4986622;28;20054;-87
2024/01/22 07:58:34;;;;;;;4.00;1.00;;;;;;;9.43;100.00;100439.84;4988202;28;20091;-87
2024/01/22 08:00:59;;;;;;;7.10;1.10;;;;;;;9.46;100.00;100433.75;4988186;28;20022;-88
2024/01/22 08:03:25;;;;;;;5.20;0.90;;;;;;;9.47;100.00;100436.28;4983922;28;20022;-87
2024/01/22 08:05:50;;;;;;;4.07;1.00;;;;;;;9.49;100.00;100437.09;4987347;28;20158;-88
2024/01/22 08:08:15;;;;;;;4.35;1.00;;;;;;;9.48;100.00;100443.19;4972587;28;20443;-88
2024/01/22 08:10:41;;;;;;;6.55;1.17;;;;;;;9.51;100.00;100442.22;4969577;28;20031;-89
2024/01/22 08:13:06;;;;;;;6.75;1.10;;;;;;;9.48;100.00;100437.97;4969662;28;20031;-87
2024/01/22 08:15:32;;;;;;;6.30;1.27;;;;;;;9.49;100.00;100437.09;4969583;28;20069;-88
2024/01/22 08:17:57;;;;;;;7.90;1.55;;;;;;;9.47;100.00;100451.03;4970170;28;20082;-88
2024/01/22 08:20:22;;;;;;;6.07;1.35;;;;;;;9.45;100.00;100445.84;4989054;28;20018;-87
2024/01/22 08:22:49;;;;;;;4.72;1.60;;;;;;;9.41;100.00;100449.41;4989243;28;20030;-89
2024/01/22 08:25:19;;;;;;;8.82;1.48;;;;;;;9.39;100.00;100456.44;4960515;28;20042;-88
2024/01/22 08:27:45;;;;;;;9.35;1.83;;;;;;;9.36;100.00;100451.31;4970119;28;20054;-87
2024/01/22 08:30:12;;;;;;;7.18;1.50;;;;;;;9.35;100.00;100462.59;4969558;28;20122;-87
2024/01/22 08:32:37;;;;;;;7.15;1.48;;;;;;;9.34;100.00;100490.28;4970391;28;20256;-88
2024/01/22 08:35:04;;;;;;;9.48;1.80;;;;;;;9.34;100.00;100486.84;4970365;28;22223;-87
2024/01/22 08:37:29;;;;;;;9.63;1.67;;;;;;;9.35;100.00;100471.22;4969719;28;20050;-89
2024/01/22 08:39:54;;;;;;;10.73;1.73;;;;;;;9.35;100.00;100472.97;4969353;28;20113;-87
2024/01/22 08:42:20;;;;;;;6.32;1.30;;;;;;;9.33;100.00;100462.59;4971526;28;20037;-89
2024/01/22 08:44:45;;;;;;;4.95;1.25;;;;;;;9.30;100.00;100475.69;4969373;28;20039;-88
2024/01/22 08:47:10;;;;;;;9.38;1.45;;;;;;;9.26;100.00;100469.72;4970901;28;20657;-90
2024/01/22 08:49:36;;;;;;;10.02;1.90;;;;;;;9.23;100.00;100466.34;4970900;28;20049;-90
2024/01/22 08:52:01;;;;;;;7.55;1.60;;;;;;;9.20;100.00;100456.91;4974195;28;20069;-90
2024/01/22 08:54:27;;;;;;;7.43;1.38;;;;;;;9.17;100.00;100462.19;4969200;28;20045;-89
2024/01/22 08:56:52;;;;;;;7.97;1.50;;;;;;;9.19;100.00;100478.56;4969834;28;20027;-86
2024/01/22 08:59:17;;;;;;;10.45;1.70;;;;;;;9.19;100.00;100475.97;4972629;28;20428;-88
2024/01/22 09:01:43;;;;;;;9.32;1.50;;;;;;;9.18;100.00;100474.25;4967084;28;20026;-87
2024/01/22 09:04:08;;;;;;;6.68;1.50;;;;;;;9.21;100.00;100476.78;4975824;28;20034;-86
2024/01/22 09:06:33;;;;;;;11.25;1.73;;;;;;;9.18;100.00;100484.66;4960001;28;20061;-86
2024/01/22 09:08:59;;;;;;;8.88;1.50;;;;;;;9.22;100.00;100464.66;4973027;28;20055;-86
2024/01/22 09:11:24;;;;;;;7.80;1.50;;;;;;;9.19;100.00;100470.78;4972513;28;20037;-85
2024/01/22 09:13:49;;;;;;;8.75;1.75;;;;;;;9.23;100.00;100463.75;4980335;28;20381;-85
2024/01/22 09:16:15;;;;;;;10.30;1.42;;;;;;;9.21;100.00;100468.13;4979279;28;20102;-85
2024/01/22 09:18:42;;;;;;;10.77;1.50;;;;;;;9.20;100.00;100464.69;4960671;28;20031;-86
2024/01/22 09:21:08;;;;;;;8.07;1.73;;;;;;;9.20;100.00;100462.09;4974709;28;20109;-86
2024/01/22 09:23:33;;;;;;;10.38;1.75;;;;;;;9.21;100.00;100453.44;4962988;28;20552;-86
2024/01/22 09:25:59;;;;;;;8.27;1.55;;;;;;;9.17;100.00;100457.00;4975518;28;20089;-87
2024/01/22 09:28:30;;;;;;;10.35;1.95;;;;;;;9.17;100.00;100456.13;4983678;28;20431;-90
2024/01/22 09:30:57;;;;;;;9.23;1.63;;;;;;;9.16;100.00;100444.03;4982414;28;20033;-88
2024/01/22 09:33:23;;;;;;;9.40;1.80;;;;;;;9.13;100.00;100444.97;4973142;28;20129;-88
2024/01/22 09:35:48;;;;;;;7.80;1.55;;;;;;;9.15;100.00;100445.78;4971603;28;20039;-88
2024/01/22 09:38:13;;;;;;;11.95;1.70;;;;;;;9.16;100.00;100450.09;4975252;28;20065;-87
2024/01/22 09:40:39;;;;;;;12.57;1.63;;;;;;;9.15;100.00;100443.19;4983669;28;20054;-88
2024/01/22 09:43:06;;;;;;;8.90;1.63;;;;;;;9.21;100.00;100452.56;4963325;28;20096;-90
2024/01/22 09:45:35;;;;;;;7.60;1.55;;;;;;;9.25;100.00;100446.41;4978532;28;20030;-94
2024/01/22 09:48:00;;;;;;;10.15;1.77;;;;;;;9.30;100.00;100451.47;4959013;28;20357;-90
2024/01/22 09:50:27;;;;;;;7.82;1.42;;;;;;;9.25;100.00;100459.38;4975838;28;20476;-89
2024/01/22 09:52:56;;;;;;;8.65;2.15;;;;;;;9.26;100.00;100469.72;4985493;28;20141;-89
2024/01/22 09:55:22;;;;;;;7.28;1.50;;;;;;;9.22;100.00;100465.47;4974519;28;20085;-89
2024/01/22 09:57:53;;;;;;;8.77;1.40;;;;;;;9.26;100.00;100474.06;4973176;28;20034;-87
2024/01/22 10:00:25;;;;;;;6.70;1.27;;;;;;;9.24;100.00;100473.25;4957830;28;20050;-89
2024/01/22 10:02:51;;;;;;;5.30;1.20;;;;;;;9.29;100.00;100486.09;4966326;28;20106;-90
2024/01/22 10:05:17;;;;;;;8.52;1.38;;;;;;;9.33;100.00;100490.31;4980465;28;20105;-91
2024/01/22 10:07:42;;;;;;;3.85;0.90;;;;;;;9.31;100.00;100481.72;4939999;28;20086;-90
2024/01/22 10:10:08;;;;;;;7.55;1.40;;;;;;;9.36;100.00;100487.66;4939663;28;20042;-91
2024/01/22 10:12:57;;;;;;;6.40;1.25;;;;;;;9.37;100.00;100499.75;4940905;28;20180;-91
2024/01/22 10:15:23;;;;;;;9.68;1.23;;;;;;;9.30;100.00;100576.06;4953863;28;20396;-91
2024/01/22 10:17:49;;;;;;;7.45;1.20;;;;;;;9.12;100.00;100588.59;4938260;28;20034;-89
2024/01/22 10:20:16;;;;;;;9.50;1.00;;;;;;;8.82;100.00;100583.25;4944303;28;20443;-88
2024/01/22 10:22:41;;;;;;;7.97;1.10;;;;;;;8.61;100.00;100593.19;4944455;28;20038;-91
2024/01/22 10:25:08;;;;;;;9.98;1.20;;;;;;;8.41;100.00;100588.41;4962317;28;20027;-93
2024/01/22 10:27:33;;;;;;;4.15;1.08;;;;;;;8.22;100.00;100580.16;4958590;28;20464;-93
2024/01/22 10:30:25;;;;;;;;;;;;;;;;;;;;;
2024/01/22 10:32:42;;;;;;;7.53;1.20;;;;;;;8.03;100.00;100598.63;5007016;23;20055;-90
2024/01/22 10:35:26;;;;;;;5.05;1.05;;;;;;;7.97;100.00;100600.50;4941065;28;20071;-89
2024/01/22 10:38:16;;;;;;;6.60;1.13;;;;;;;7.89;100.00;100598.06;4959648;28;20034;-91
2024/01/22 10:40:43;;;;;;;8.77;1.20;;;;;;;7.85;100.00;100622.31;4962862;28;20308;-93
2024/01/22 10:43:26;;;;;;;7.72;1.25;;;;;;;7.86;100.00;100624.00;4944825;29;20102;-91
2024/01/22 10:45:56;;;;;;;7.25;1.27;;;;;;;7.82;100.00;100617.19;4941015;29;20035;-92
2024/01/22 10:48:32;;;;;;;10.77;1.27;;;;;;;7.77;100.00;100611.22;4943667;28;20031;-96
2024/01/22 10:51:23;;;;;;;9.60;1.75;;;;;;;7.74;100.00;100631.13;4949059;28;20102;-95
2024/01/22 10:54:21;;;;;;;10.80;1.87;;;;;;;7.71;100.00;100620.81;4947257;28;20031;-96
2024/01/22 10:56:53;;;;;;;10.98;1.98;;;;;;;7.69;100.00;100625.16;4945447;28;20058;-94
2024/01/22 10:59:46;;;;;;;8.93;1.80;;;;;;;7.72;100.00;100625.09;4946890;29;20102;-96
2024/01/22 11:02:24;;;;;;;9.48;1.45;;;;;;;7.74;100.00;100625.94;4947717;29;20024;-95
2024/01/22 11:05:06;;;;;;;;;;;;;;;;;;;;;
2024/01/22 11:07:37;;;;;;;11.88;1.85;;;;;;;7.77;100.00;100621.59;4941981;29;20372;-94
2024/01/22 11:10:08;;;;;;;12.60;2.13;;;;;;;7.78;100.00;100618.97;4932526;29;20031;-93
2024/01/22 11:12:41;;;;;;;10.65;1.92;;;;;;;7.82;100.00;100627.56;4927495;29;20037;-93
2024/01/22 11:15:17;;;;;;;;;;;;;;;;;;;;;
2024/01/22 11:17:54;;;;;;;;;;;;;;;;;;;;;
2024/01/22 11:20:20;;;;;;;15.77;2.17;;;;;;;7.82;100.00;100635.31;4939753;29;20053;-92
2024/01/22 11:23:04;;;;;;;12.85;2.05;;;;;;;7.82;100.00;100640.50;4934364;28;20028;-90
2024/01/22 11:25:29;;;;;;;12.55;1.80;;;;;;;7.83;100.00;100650.81;4942418;29;20058;-89
2024/01/22 11:28:12;;;;;;;13.35;1.95;;;;;;;7.85;100.00;100638.69;4950002;28;20087;-93